sensor_id;sensor_type;location;lat;lon;timestamp;temperature;humidity
70534;SHT31;58088;51.186;17.130;2023-03-19T00:00:28;6.41;57.68
70534;SHT31;58088;51.186;17.130;2023-03-19T00:02:54;6.43;57.62
70534;SHT31;58088;51.186;17.130;2023-03-19T00:05:23;6.41;57.46
70534;SHT31;58088;51.186;17.130;2023-03-19T00:07:49;6.38;57.57
70534;SHT31;58088;51.186;17.130;2023-03-19T00:10:16;6.36;57.62
70534;SHT31;58088;51.186;17.130;2023-03-19T00:12:42;6.30;57.74
70534;SHT31;58088;51.186;17.130;2023-03-19T00:15:09;6.24;57.84
70534;SHT31;58088;51.186;17.130;2023-03-19T00:17:40;6.17;57.97
70534;SHT31;58088;51.186;17.130;2023-03-19T00:20:08;6.14;57.97
70534;SHT31;58088;51.186;17.130;2023-03-19T00:22:36;6.09;58.04
70534;SHT31;58088;51.186;17.130;2023-03-19T00:25:03;6.05;57.98
70534;SHT31;58088;51.186;17.130;2023-03-19T00:27:30;6.00;58.01
70534;SHT31;58088;51.186;17.130;2023-03-19T00:29:56;5.95;57.99
70534;SHT31;58088;51.186;17.130;2023-03-19T00:32:22;5.88;57.92
70534;SHT31;58088;51.186;17.130;2023-03-19T00:34:50;5.83;58.04
70534;SHT31;58088;51.186;17.130;2023-03-19T00:37:16;5.80;57.98
70534;SHT31;58088;51.186;17.130;2023-03-19T00:39:42;5.76;58.11
70534;SHT31;58088;51.186;17.130;2023-03-19T00:42:09;5.71;58.29
70534;SHT31;58088;51.186;17.130;2023-03-19T00:44:35;5.66;58.32
70534;SHT31;58088;51.186;17.130;2023-03-19T00:47:02;5.64;58.42
70534;SHT31;58088;51.186;17.130;2023-03-19T00:49:28;5.60;58.40
70534;SHT31;58088;51.186;17.130;2023-03-19T00:51:55;5.53;58.70
70534;SHT31;58088;51.186;17.130;2023-03-19T00:54:21;5.46;59.04
70534;SHT31;58088;51.186;17.130;2023-03-19T00:56:47;5.43;58.99
70534;SHT31;58088;51.186;17.130;2023-03-19T00:59:13;5.40;59.09
70534;SHT31;58088;51.186;17.130;2023-03-19T01:04:27;5.35;59.42
70534;SHT31;58088;51.186;17.130;2023-03-19T01:06:54;5.33;59.49
70534;SHT31;58088;51.186;17.130;2023-03-19T01:09:20;5.31;59.58
70534;SHT31;58088;51.186;17.130;2023-03-19T01:11:46;5.29;59.78
70534;SHT31;58088;51.186;17.130;2023-03-19T01:14:14;5.28;59.64
70534;SHT31;58088;51.186;17.130;2023-03-19T01:16:41;5.24;59.61
70534;SHT31;58088;51.186;17.130;2023-03-19T01:19:08;5.19;59.75
70534;SHT31;58088;51.186;17.130;2023-03-19T01:21:34;5.17;59.68
70534;SHT31;58088;51.186;17.130;2023-03-19T01:24:01;5.17;59.72
70534;SHT31;58088;51.186;17.130;2023-03-19T01:26:28;5.14;59.70
70534;SHT31;58088;51.186;17.130;2023-03-19T01:29:01;5.10;59.72
70534;SHT31;58088;51.186;17.130;2023-03-19T01:31:28;5.06;59.79
70534;SHT31;58088;51.186;17.130;2023-03-19T01:34:19;5.02;59.91
70534;SHT31;58088;51.186;17.130;2023-03-19T01:36:53;4.98;60.11
70534;SHT31;58088;51.186;17.130;2023-03-19T01:39:28;4.93;60.12
70534;SHT31;58088;51.186;17.130;2023-03-19T01:41:54;4.91;60.26
70534;SHT31;58088;51.186;17.130;2023-03-19T01:45:27;4.90;60.32
70534;SHT31;58088;51.186;17.130;2023-03-19T01:48:36;4.89;60.40
70534;SHT31;58088;51.186;17.130;2023-03-19T01:51:19;4.89;60.35
70534;SHT31;58088;51.186;17.130;2023-03-19T01:54:18;4.85;60.13
70534;SHT31;58088;51.186;17.130;2023-03-19T01:56:57;4.80;60.38
70534;SHT31;58088;51.186;17.130;2023-03-19T01:59:52;4.78;60.46
70534;SHT31;58088;51.186;17.130;2023-03-19T02:02:41;4.76;60.47
70534;SHT31;58088;51.186;17.130;2023-03-19T02:05:24;4.74;60.61
70534;SHT31;58088;51.186;17.130;2023-03-19T02:07:57;4.73;60.50
70534;SHT31;58088;51.186;17.130;2023-03-19T02:10:29;4.74;60.46
70534;SHT31;58088;51.186;17.130;2023-03-19T02:12:56;4.76;60.43
70534;SHT31;58088;51.186;17.130;2023-03-19T02:15:23;4.76;60.26
70534;SHT31;58088;51.186;17.130;2023-03-19T02:17:49;4.68;60.21
70534;SHT31;58088;51.186;17.130;2023-03-19T02:20:29;4.65;60.18
70534;SHT31;58088;51.186;17.130;2023-03-19T02:26:14;4.68;60.12
70534;SHT31;58088;51.186;17.130;2023-03-19T02:28:46;4.69;60.07
70534;SHT31;58088;51.186;17.130;2023-03-19T02:31:20;4.71;59.99
70534;SHT31;58088;51.186;17.130;2023-03-19T02:36:58;4.75;59.73
70534;SHT31;58088;51.186;17.130;2023-03-19T02:42:19;4.78;59.83
70534;SHT31;58088;51.186;17.130;2023-03-19T02:44:48;4.76;59.92
70534;SHT31;58088;51.186;17.130;2023-03-19T02:47:15;4.88;59.72
70534;SHT31;58088;51.186;17.130;2023-03-19T02:49:43;4.84;59.66
70534;SHT31;58088;51.186;17.130;2023-03-19T02:52:09;4.81;59.86
70534;SHT31;58088;51.186;17.130;2023-03-19T02:54:36;4.80;59.96
70534;SHT31;58088;51.186;17.130;2023-03-19T02:57:02;4.79;60.09
70534;SHT31;58088;51.186;17.130;2023-03-19T02:59:29;4.79;60.35
70534;SHT31;58088;51.186;17.130;2023-03-19T03:01:55;4.80;60.27
70534;SHT31;58088;51.186;17.130;2023-03-19T03:04:21;4.82;60.43
70534;SHT31;58088;51.186;17.130;2023-03-19T03:06:48;4.83;60.53
70534;SHT31;58088;51.186;17.130;2023-03-19T03:09:14;4.84;60.49
70534;SHT31;58088;51.186;17.130;2023-03-19T03:11:42;4.81;60.66
70534;SHT31;58088;51.186;17.130;2023-03-19T03:14:08;4.79;60.71
70534;SHT31;58088;51.186;17.130;2023-03-19T03:16:35;4.80;60.66
70534;SHT31;58088;51.186;17.130;2023-03-19T03:19:03;4.81;60.65
70534;SHT31;58088;51.186;17.130;2023-03-19T03:21:30;4.80;60.65
70534;SHT31;58088;51.186;17.130;2023-03-19T03:23:57;4.81;60.79
70534;SHT31;58088;51.186;17.130;2023-03-19T03:26:23;4.82;60.85
70534;SHT31;58088;51.186;17.130;2023-03-19T03:28:50;4.80;61.00
70534;SHT31;58088;51.186;17.130;2023-03-19T03:31:17;4.79;60.93
70534;SHT31;58088;51.186;17.130;2023-03-19T03:33:44;4.79;60.89
70534;SHT31;58088;51.186;17.130;2023-03-19T03:36:11;4.79;60.86
70534;SHT31;58088;51.186;17.130;2023-03-19T03:38:38;4.80;60.80
70534;SHT31;58088;51.186;17.130;2023-03-19T03:41:04;4.79;60.90
70534;SHT31;58088;51.186;17.130;2023-03-19T03:43:32;4.78;60.90
70534;SHT31;58088;51.186;17.130;2023-03-19T03:45:58;4.73;61.14
70534;SHT31;58088;51.186;17.130;2023-03-19T03:48:25;4.72;61.12
70534;SHT31;58088;51.186;17.130;2023-03-19T03:50:51;4.71;61.03
70534;SHT31;58088;51.186;17.130;2023-03-19T03:53:20;4.72;61.11
70534;SHT31;58088;51.186;17.130;2023-03-19T03:55:46;4.68;61.25
70534;SHT31;58088;51.186;17.130;2023-03-19T03:58:14;4.63;61.34
70534;SHT31;58088;51.186;17.130;2023-03-19T04:00:41;4.61;61.36
70534;SHT31;58088;51.186;17.130;2023-03-19T04:03:07;4.60;61.44
70534;SHT31;58088;51.186;17.130;2023-03-19T04:05:35;4.57;61.65
70534;SHT31;58088;51.186;17.130;2023-03-19T04:08:02;4.54;61.62
70534;SHT31;58088;51.186;17.130;2023-03-19T04:10:29;4.50;61.83
70534;SHT31;58088;51.186;17.130;2023-03-19T04:12:56;4.45;61.96
70534;SHT31;58088;51.186;17.130;2023-03-19T04:15:23;4.40;62.20
70534;SHT31;58088;51.186;17.130;2023-03-19T04:17:49;4.38;62.12
70534;SHT31;58088;51.186;17.130;2023-03-19T04:20:16;4.37;62.08
70534;SHT31;58088;51.186;17.130;2023-03-19T04:22:43;4.36;62.14
70534;SHT31;58088;51.186;17.130;2023-03-19T04:25:10;4.36;62.19
70534;SHT31;58088;51.186;17.130;2023-03-19T04:27:36;4.33;62.29
70534;SHT31;58088;51.186;17.130;2023-03-19T04:30:03;4.32;62.24
70534;SHT31;58088;51.186;17.130;2023-03-19T04:32:30;4.31;62.43
70534;SHT31;58088;51.186;17.130;2023-03-19T04:34:58;4.27;62.46
70534;SHT31;58088;51.186;17.130;2023-03-19T04:37:24;4.26;62.41
70534;SHT31;58088;51.186;17.130;2023-03-19T04:39:52;4.24;62.51
70534;SHT31;58088;51.186;17.130;2023-03-19T04:42:19;4.23;62.49
70534;SHT31;58088;51.186;17.130;2023-03-19T04:45:00;4.23;62.49
70534;SHT31;58088;51.186;17.130;2023-03-19T04:47:27;4.23;62.52
70534;SHT31;58088;51.186;17.130;2023-03-19T04:49:55;4.21;62.62
70534;SHT31;58088;51.186;17.130;2023-03-19T04:52:22;4.19;62.66
70534;SHT31;58088;51.186;17.130;2023-03-19T04:54:49;4.19;62.68
70534;SHT31;58088;51.186;17.130;2023-03-19T04:57:15;4.20;62.53
70534;SHT31;58088;51.186;17.130;2023-03-19T04:59:43;4.23;62.49
70534;SHT31;58088;51.186;17.130;2023-03-19T05:02:11;4.26;62.46
70534;SHT31;58088;51.186;17.130;2023-03-19T05:04:38;4.29;62.32
70534;SHT31;58088;51.186;17.130;2023-03-19T05:07:07;4.29;62.28
70534;SHT31;58088;51.186;17.130;2023-03-19T05:09:34;4.31;62.29
70534;SHT31;58088;51.186;17.130;2023-03-19T05:12:00;4.34;62.26
70534;SHT31;58088;51.186;17.130;2023-03-19T05:14:26;4.37;62.35
70534;SHT31;58088;51.186;17.130;2023-03-19T05:17:06;4.43;62.40
70534;SHT31;58088;51.186;17.130;2023-03-19T05:19:48;4.49;62.50
70534;SHT31;58088;51.186;17.130;2023-03-19T05:22:14;4.65;62.43
70534;SHT31;58088;51.186;17.130;2023-03-19T05:24:44;4.83;62.43
70534;SHT31;58088;51.186;17.130;2023-03-19T05:27:11;4.88;62.54
70534;SHT31;58088;51.186;17.130;2023-03-19T05:30:10;4.96;62.10
70534;SHT31;58088;51.186;17.130;2023-03-19T05:32:59;5.06;62.08
70534;SHT31;58088;51.186;17.130;2023-03-19T05:35:35;5.14;62.07
70534;SHT31;58088;51.186;17.130;2023-03-19T05:38:05;5.18;61.98
70534;SHT31;58088;51.186;17.130;2023-03-19T05:40:32;5.20;62.00
70534;SHT31;58088;51.186;17.130;2023-03-19T05:43:04;5.28;61.87
70534;SHT31;58088;51.186;17.130;2023-03-19T05:45:31;5.36;61.81
70534;SHT31;58088;51.186;17.130;2023-03-19T05:48:02;5.44;61.68
70534;SHT31;58088;51.186;17.130;2023-03-19T05:50:31;5.56;61.68
70534;SHT31;58088;51.186;17.130;2023-03-19T05:53:09;5.86;61.26
70534;SHT31;58088;51.186;17.130;2023-03-19T05:55:36;6.32;60.75
70534;SHT31;58088;51.186;17.130;2023-03-19T05:58:06;6.89;60.07
70534;SHT31;58088;51.186;17.130;2023-03-19T06:00:32;7.49;59.32
70534;SHT31;58088;51.186;17.130;2023-03-19T06:02:59;8.12;58.21
70534;SHT31;58088;51.186;17.130;2023-03-19T06:05:33;8.75;56.92
70534;SHT31;58088;51.186;17.130;2023-03-19T06:08:18;9.42;55.65
70534;SHT31;58088;51.186;17.130;2023-03-19T06:11:21;10.13;53.44
70534;SHT31;58088;51.186;17.130;2023-03-19T06:13:55;10.74;52.92
70534;SHT31;58088;51.186;17.130;2023-03-19T06:16:22;11.33;51.86
70534;SHT31;58088;51.186;17.130;2023-03-19T06:18:53;11.79;50.58
70534;SHT31;58088;51.186;17.130;2023-03-19T06:21:19;12.09;48.80
70534;SHT31;58088;51.186;17.130;2023-03-19T06:23:45;12.23;47.99
70534;SHT31;58088;51.186;17.130;2023-03-19T06:26:14;12.32;47.79
70534;SHT31;58088;51.186;17.130;2023-03-19T06:28:46;12.44;47.26
70534;SHT31;58088;51.186;17.130;2023-03-19T06:31:13;12.61;47.14
70534;SHT31;58088;51.186;17.130;2023-03-19T06:34:05;12.64;46.61
70534;SHT31;58088;51.186;17.130;2023-03-19T06:36:38;12.55;46.85
70534;SHT31;58088;51.186;17.130;2023-03-19T06:39:05;12.45;46.56
70534;SHT31;58088;51.186;17.130;2023-03-19T06:41:31;12.41;46.28
70534;SHT31;58088;51.186;17.130;2023-03-19T06:44:05;12.45;46.37
70534;SHT31;58088;51.186;17.130;2023-03-19T06:46:32;12.44;46.20
70534;SHT31;58088;51.186;17.130;2023-03-19T06:48:58;12.37;45.92
70534;SHT31;58088;51.186;17.130;2023-03-19T06:51:24;12.32;45.82
70534;SHT31;58088;51.186;17.130;2023-03-19T06:53:52;12.32;46.31
70534;SHT31;58088;51.186;17.130;2023-03-19T06:56:19;12.47;45.93
70534;SHT31;58088;51.186;17.130;2023-03-19T06:58:46;12.50;45.24
70534;SHT31;58088;51.186;17.130;2023-03-19T07:01:12;12.56;45.43
70534;SHT31;58088;51.186;17.130;2023-03-19T07:03:39;12.67;45.63
70534;SHT31;58088;51.186;17.130;2023-03-19T07:06:05;12.90;45.48
70534;SHT31;58088;51.186;17.130;2023-03-19T07:08:32;12.99;45.14
70534;SHT31;58088;51.186;17.130;2023-03-19T07:11:04;12.99;45.12
70534;SHT31;58088;51.186;17.130;2023-03-19T07:13:32;12.97;44.90
70534;SHT31;58088;51.186;17.130;2023-03-19T07:15:59;12.87;44.82
70534;SHT31;58088;51.186;17.130;2023-03-19T07:18:25;12.88;45.04
70534;SHT31;58088;51.186;17.130;2023-03-19T07:20:52;13.01;45.35
70534;SHT31;58088;51.186;17.130;2023-03-19T07:23:18;13.22;45.26
70534;SHT31;58088;51.186;17.130;2023-03-19T07:25:45;13.31;44.97
70534;SHT31;58088;51.186;17.130;2023-03-19T07:28:14;13.27;44.91
70534;SHT31;58088;51.186;17.130;2023-03-19T07:30:42;13.26;45.13
70534;SHT31;58088;51.186;17.130;2023-03-19T07:33:09;13.28;45.10
70534;SHT31;58088;51.186;17.130;2023-03-19T07:35:37;13.20;44.87
70534;SHT31;58088;51.186;17.130;2023-03-19T07:38:05;13.20;44.79
70534;SHT31;58088;51.186;17.130;2023-03-19T07:40:31;13.19;44.92
70534;SHT31;58088;51.186;17.130;2023-03-19T07:42:57;13.16;44.97
70534;SHT31;58088;51.186;17.130;2023-03-19T07:45:23;13.32;45.12
70534;SHT31;58088;51.186;17.130;2023-03-19T07:47:50;13.51;45.13
70534;SHT31;58088;51.186;17.130;2023-03-19T07:50:17;13.65;44.82
70534;SHT31;58088;51.186;17.130;2023-03-19T07:52:46;13.86;44.99
70534;SHT31;58088;51.186;17.130;2023-03-19T07:55:16;14.15;44.31
70534;SHT31;58088;51.186;17.130;2023-03-19T07:57:43;14.24;43.80
70534;SHT31;58088;51.186;17.130;2023-03-19T08:00:09;14.43;43.89
70534;SHT31;58088;51.186;17.130;2023-03-19T08:02:42;14.55;43.58
70534;SHT31;58088;51.186;17.130;2023-03-19T08:05:08;14.65;43.32
70534;SHT31;58088;51.186;17.130;2023-03-19T08:07:35;14.63;42.91
70534;SHT31;58088;51.186;17.130;2023-03-19T08:10:05;14.73;43.07
70534;SHT31;58088;51.186;17.130;2023-03-19T08:12:33;14.81;43.03
70534;SHT31;58088;51.186;17.130;2023-03-19T08:15:06;14.94;43.12
70534;SHT31;58088;51.186;17.130;2023-03-19T08:17:36;15.11;43.09
70534;SHT31;58088;51.186;17.130;2023-03-19T08:20:07;15.22;42.90
70534;SHT31;58088;51.186;17.130;2023-03-19T08:22:37;15.19;42.17
70534;SHT31;58088;51.186;17.130;2023-03-19T08:25:05;15.14;42.30
70534;SHT31;58088;51.186;17.130;2023-03-19T08:27:32;15.06;41.96
70534;SHT31;58088;51.186;17.130;2023-03-19T08:30:01;14.93;42.30
70534;SHT31;58088;51.186;17.130;2023-03-19T08:32:30;15.02;42.13
70534;SHT31;58088;51.186;17.130;2023-03-19T08:34:56;15.13;42.00
70534;SHT31;58088;51.186;17.130;2023-03-19T08:37:22;15.19;42.07
70534;SHT31;58088;51.186;17.130;2023-03-19T08:39:49;15.16;41.83
70534;SHT31;58088;51.186;17.130;2023-03-19T08:42:17;15.18;41.97
70534;SHT31;58088;51.186;17.130;2023-03-19T08:44:44;15.23;42.09
70534;SHT31;58088;51.186;17.130;2023-03-19T08:47:10;15.32;42.40
70534;SHT31;58088;51.186;17.130;2023-03-19T08:49:37;15.46;42.35
70534;SHT31;58088;51.186;17.130;2023-03-19T08:52:03;15.53;41.80
70534;SHT31;58088;51.186;17.130;2023-03-19T08:54:30;15.59;41.83
70534;SHT31;58088;51.186;17.130;2023-03-19T08:56:58;15.78;41.44
70534;SHT31;58088;51.186;17.130;2023-03-19T08:59:26;15.91;41.44
70534;SHT31;58088;51.186;17.130;2023-03-19T09:01:53;15.95;40.98
70534;SHT31;58088;51.186;17.130;2023-03-19T09:04:20;16.01;41.07
70534;SHT31;58088;51.186;17.130;2023-03-19T09:06:47;15.98;40.81
70534;SHT31;58088;51.186;17.130;2023-03-19T09:09:19;15.95;40.56
70534;SHT31;58088;51.186;17.130;2023-03-19T09:11:49;16.00;40.31
70534;SHT31;58088;51.186;17.130;2023-03-19T09:14:15;15.94;40.27
70534;SHT31;58088;51.186;17.130;2023-03-19T09:16:44;15.90;39.77
70534;SHT31;58088;51.186;17.130;2023-03-19T09:19:10;15.95;39.80
70534;SHT31;58088;51.186;17.130;2023-03-19T09:21:37;16.05;40.10
70534;SHT31;58088;51.186;17.130;2023-03-19T09:24:03;16.24;40.30
70534;SHT31;58088;51.186;17.130;2023-03-19T09:26:30;16.43;40.16
70534;SHT31;58088;51.186;17.130;2023-03-19T09:28:56;16.53;39.85
70534;SHT31;58088;51.186;17.130;2023-03-19T09:31:23;16.58;39.59
70534;SHT31;58088;51.186;17.130;2023-03-19T09:33:50;16.62;39.51
70534;SHT31;58088;51.186;17.130;2023-03-19T09:36:16;16.63;39.01
70534;SHT31;58088;51.186;17.130;2023-03-19T09:38:42;16.72;39.07
70534;SHT31;58088;51.186;17.130;2023-03-19T09:41:09;16.75;38.43
70534;SHT31;58088;51.186;17.130;2023-03-19T09:43:55;16.75;37.73
70534;SHT31;58088;51.186;17.130;2023-03-19T09:46:54;16.74;38.40
70534;SHT31;58088;51.186;17.130;2023-03-19T09:49:38;16.68;38.78
70534;SHT31;58088;51.186;17.130;2023-03-19T09:57:44;16.79;38.97
70534;SHT31;58088;51.186;17.130;2023-03-19T10:00:34;16.89;38.24
70534;SHT31;58088;51.186;17.130;2023-03-19T10:20:45;17.64;35.60
70534;SHT31;58088;51.186;17.130;2023-03-19T10:23:44;17.65;35.70
70534;SHT31;58088;51.186;17.130;2023-03-19T10:26:18;17.74;35.78
70534;SHT31;58088;51.186;17.130;2023-03-19T10:34:34;18.02;35.55
70534;SHT31;58088;51.186;17.130;2023-03-19T10:39:38;18.01;35.52
70534;SHT31;58088;51.186;17.130;2023-03-19T10:42:19;18.00;35.61
70534;SHT31;58088;51.186;17.130;2023-03-19T10:47:51;17.93;36.55
70534;SHT31;58088;51.186;17.130;2023-03-19T10:50:21;17.91;36.48
70534;SHT31;58088;51.186;17.130;2023-03-19T10:53:01;17.98;36.60
70534;SHT31;58088;51.186;17.130;2023-03-19T10:55:32;18.04;36.78
70534;SHT31;58088;51.186;17.130;2023-03-19T10:58:03;18.14;36.27
70534;SHT31;58088;51.186;17.130;2023-03-19T11:01:01;18.17;36.62
70534;SHT31;58088;51.186;17.130;2023-03-19T11:03:36;18.35;37.24
70534;SHT31;58088;51.186;17.130;2023-03-19T11:07:01;18.47;36.97
70534;SHT31;58088;51.186;17.130;2023-03-19T11:11:34;18.54;36.16
70534;SHT31;58088;51.186;17.130;2023-03-19T11:14:31;18.64;36.52
70534;SHT31;58088;51.186;17.130;2023-03-19T11:19:51;18.92;36.17
70534;SHT31;58088;51.186;17.130;2023-03-19T11:24:56;19.02;35.48
70534;SHT31;58088;51.186;17.130;2023-03-19T11:27:59;18.88;34.65
70534;SHT31;58088;51.186;17.130;2023-03-19T11:30:35;18.88;35.28
70534;SHT31;58088;51.186;17.130;2023-03-19T11:33:36;18.95;34.79
70534;SHT31;58088;51.186;17.130;2023-03-19T11:39:36;18.81;34.31
70534;SHT31;58088;51.186;17.130;2023-03-19T11:45:38;18.91;34.92
70534;SHT31;58088;51.186;17.130;2023-03-19T11:48:30;19.11;35.25
70534;SHT31;58088;51.186;17.130;2023-03-19T11:57:23;19.17;34.74
70534;SHT31;58088;51.186;17.130;2023-03-19T12:00:25;19.02;34.74
70534;SHT31;58088;51.186;17.130;2023-03-19T12:13:50;19.26;33.91
70534;SHT31;58088;51.186;17.130;2023-03-19T12:17:02;19.23;34.26
70534;SHT31;58088;51.186;17.130;2023-03-19T12:25:54;19.31;34.63
70534;SHT31;58088;51.186;17.130;2023-03-19T12:28:31;19.23;34.75
70534;SHT31;58088;51.186;17.130;2023-03-19T12:31:11;19.14;34.86
70534;SHT31;58088;51.186;17.130;2023-03-19T12:33:55;19.13;34.92
70534;SHT31;58088;51.186;17.130;2023-03-19T12:36:57;19.16;35.30
70534;SHT31;58088;51.186;17.130;2023-03-19T12:40:28;19.25;35.05
70534;SHT31;58088;51.186;17.130;2023-03-19T12:43:17;19.26;34.69
70534;SHT31;58088;51.186;17.130;2023-03-19T12:45:59;19.32;34.64
70534;SHT31;58088;51.186;17.130;2023-03-19T12:48:41;19.40;34.45
70534;SHT31;58088;51.186;17.130;2023-03-19T12:51:16;19.48;34.74
70534;SHT31;58088;51.186;17.130;2023-03-19T12:53:49;19.48;34.50
70534;SHT31;58088;51.186;17.130;2023-03-19T12:57:01;19.45;33.86
70534;SHT31;58088;51.186;17.130;2023-03-19T13:00:14;19.49;34.16
70534;SHT31;58088;51.186;17.130;2023-03-19T13:03:08;19.61;35.09
70534;SHT31;58088;51.186;17.130;2023-03-19T13:05:58;19.64;34.69
70534;SHT31;58088;51.186;17.130;2023-03-19T13:11:53;19.59;34.80
70534;SHT31;58088;51.186;17.130;2023-03-19T13:14:46;19.64;34.71
70534;SHT31;58088;51.186;17.130;2023-03-19T13:18:00;19.64;34.60
70534;SHT31;58088;51.186;17.130;2023-03-19T13:23:50;19.60;34.19
70534;SHT31;58088;51.186;17.130;2023-03-19T13:26:46;19.68;34.65
70534;SHT31;58088;51.186;17.130;2023-03-19T13:29:18;19.76;34.85
70534;SHT31;58088;51.186;17.130;2023-03-19T13:31:48;19.78;34.62
70534;SHT31;58088;51.186;17.130;2023-03-19T13:36:59;19.83;34.97
70534;SHT31;58088;51.186;17.130;2023-03-19T13:39:42;19.86;34.20
70534;SHT31;58088;51.186;17.130;2023-03-19T13:50:54;19.64;34.35
70534;SHT31;58088;51.186;17.130;2023-03-19T13:53:54;19.62;34.21
70534;SHT31;58088;51.186;17.130;2023-03-19T13:57:01;19.62;34.47
70534;SHT31;58088;51.186;17.130;2023-03-19T13:59:41;19.61;34.28
70534;SHT31;58088;51.186;17.130;2023-03-19T14:04:56;19.54;34.70
70534;SHT31;58088;51.186;17.130;2023-03-19T14:07:27;19.56;34.14
70534;SHT31;58088;51.186;17.130;2023-03-19T14:10:07;19.52;34.17
70534;SHT31;58088;51.186;17.130;2023-03-19T14:12:59;19.50;34.35
70534;SHT31;58088;51.186;17.130;2023-03-19T14:15:40;19.46;34.15
70534;SHT31;58088;51.186;17.130;2023-03-19T14:18:16;19.40;34.07
70534;SHT31;58088;51.186;17.130;2023-03-19T14:20:57;19.42;34.11
70534;SHT31;58088;51.186;17.130;2023-03-19T14:23:31;19.43;33.78
70534;SHT31;58088;51.186;17.130;2023-03-19T14:26:03;19.47;34.39
70534;SHT31;58088;51.186;17.130;2023-03-19T14:28:37;19.53;34.37
70534;SHT31;58088;51.186;17.130;2023-03-19T14:33:51;19.55;34.26
70534;SHT31;58088;51.186;17.130;2023-03-19T14:36:26;19.56;34.41
70534;SHT31;58088;51.186;17.130;2023-03-19T14:39:10;19.57;34.80
70534;SHT31;58088;51.186;17.130;2023-03-19T14:42:05;19.58;34.72
70534;SHT31;58088;51.186;17.130;2023-03-19T14:50:39;19.59;34.21
70534;SHT31;58088;51.186;17.130;2023-03-19T14:53:38;19.57;34.20
70534;SHT31;58088;51.186;17.130;2023-03-19T14:56:49;19.58;34.14
70534;SHT31;58088;51.186;17.130;2023-03-19T14:58:58;19.58;34.15
70534;SHT31;58088;51.186;17.130;2023-03-19T15:01:29;19.59;34.81
70534;SHT31;58088;51.186;17.130;2023-03-19T15:03:59;19.59;35.00
70534;SHT31;58088;51.186;17.130;2023-03-19T15:06:33;19.60;35.27
70534;SHT31;58088;51.186;17.130;2023-03-19T15:09:14;19.60;35.22
70534;SHT31;58088;51.186;17.130;2023-03-19T15:18:03;19.55;34.53
70534;SHT31;58088;51.186;17.130;2023-03-19T15:20:35;19.56;34.05
70534;SHT31;58088;51.186;17.130;2023-03-19T15:23:10;19.55;33.94
70534;SHT31;58088;51.186;17.130;2023-03-19T15:25:48;19.56;34.57
70534;SHT31;58088;51.186;17.130;2023-03-19T15:28:18;19.54;35.01
70534;SHT31;58088;51.186;17.130;2023-03-19T15:30:45;19.49;35.24
70534;SHT31;58088;51.186;17.130;2023-03-19T15:33:30;19.44;35.18
70534;SHT31;58088;51.186;17.130;2023-03-19T15:36:11;19.41;35.69
70534;SHT31;58088;51.186;17.130;2023-03-19T15:38:43;19.41;35.72
70534;SHT31;58088;51.186;17.130;2023-03-19T15:41:17;19.38;35.43
70534;SHT31;58088;51.186;17.130;2023-03-19T15:43:47;19.35;35.65
70534;SHT31;58088;51.186;17.130;2023-03-19T15:46:15;19.34;36.06
70534;SHT31;58088;51.186;17.130;2023-03-19T15:48:50;19.31;35.69
70534;SHT31;58088;51.186;17.130;2023-03-19T15:51:29;19.24;35.64
70534;SHT31;58088;51.186;17.130;2023-03-19T15:53:58;19.22;35.57
70534;SHT31;58088;51.186;17.130;2023-03-19T15:56:26;19.32;35.55
70534;SHT31;58088;51.186;17.130;2023-03-19T15:58:57;19.28;35.72
70534;SHT31;58088;51.186;17.130;2023-03-19T16:01:25;19.12;36.09
70534;SHT31;58088;51.186;17.130;2023-03-19T16:04:00;19.01;36.37
70534;SHT31;58088;51.186;17.130;2023-03-19T16:06:34;18.91;36.47
70534;SHT31;58088;51.186;17.130;2023-03-19T16:09:25;18.84;36.51
70534;SHT31;58088;51.186;17.130;2023-03-19T16:11:59;18.79;36.63
70534;SHT31;58088;51.186;17.130;2023-03-19T16:14:36;18.72;36.76
70534;SHT31;58088;51.186;17.130;2023-03-19T16:17:12;18.63;36.91
70534;SHT31;58088;51.186;17.130;2023-03-19T16:20:00;18.53;37.19
70534;SHT31;58088;51.186;17.130;2023-03-19T16:22:30;18.47;37.39
70534;SHT31;58088;51.186;17.130;2023-03-19T16:24:59;18.39;37.43
70534;SHT31;58088;51.186;17.130;2023-03-19T16:27:32;18.33;37.65
70534;SHT31;58088;51.186;17.130;2023-03-19T16:30:03;18.33;37.79
70534;SHT31;58088;51.186;17.130;2023-03-19T16:33:01;18.15;38.03
70534;SHT31;58088;51.186;17.130;2023-03-19T16:39:50;17.93;38.98
70534;SHT31;58088;51.186;17.130;2023-03-19T16:44:53;17.83;39.13
70534;SHT31;58088;51.186;17.130;2023-03-19T16:47:21;17.78;39.13
70534;SHT31;58088;51.186;17.130;2023-03-19T16:49:52;17.74;39.04
70534;SHT31;58088;51.186;17.130;2023-03-19T16:52:19;17.67;39.66
70534;SHT31;58088;51.186;17.130;2023-03-19T16:54:50;17.59;40.90
70534;SHT31;58088;51.186;17.130;2023-03-19T16:57:19;17.49;41.43
70534;SHT31;58088;51.186;17.130;2023-03-19T16:59:47;17.41;42.30
70534;SHT31;58088;51.186;17.130;2023-03-19T17:02:15;17.32;42.87
70534;SHT31;58088;51.186;17.130;2023-03-19T17:04:44;17.24;43.44
70534;SHT31;58088;51.186;17.130;2023-03-19T17:07:11;17.17;43.61
70534;SHT31;58088;51.186;17.130;2023-03-19T17:09:42;17.09;44.04
70534;SHT31;58088;51.186;17.130;2023-03-19T17:12:12;16.99;44.55
70534;SHT31;58088;51.186;17.130;2023-03-19T17:14:43;16.89;44.80
70534;SHT31;58088;51.186;17.130;2023-03-19T17:17:15;16.82;44.70
70534;SHT31;58088;51.186;17.130;2023-03-19T17:19:47;16.75;44.59
70534;SHT31;58088;51.186;17.130;2023-03-19T17:22:16;16.67;44.35
70534;SHT31;58088;51.186;17.130;2023-03-19T17:24:44;16.62;44.12
70534;SHT31;58088;51.186;17.130;2023-03-19T17:27:11;16.53;44.84
70534;SHT31;58088;51.186;17.130;2023-03-19T17:29:40;16.38;45.17
70534;SHT31;58088;51.186;17.130;2023-03-19T17:32:13;16.31;45.01
70534;SHT31;58088;51.186;17.130;2023-03-19T17:34:45;16.23;45.26
70534;SHT31;58088;51.186;17.130;2023-03-19T17:37:18;16.13;45.73
70534;SHT31;58088;51.186;17.130;2023-03-19T17:39:46;16.06;45.61
70534;SHT31;58088;51.186;17.130;2023-03-19T17:42:17;15.97;45.91
70534;SHT31;58088;51.186;17.130;2023-03-19T17:44:48;15.87;45.99
70534;SHT31;58088;51.186;17.130;2023-03-19T17:47:16;15.75;46.37
70534;SHT31;58088;51.186;17.130;2023-03-19T17:49:44;15.64;46.37
70534;SHT31;58088;51.186;17.130;2023-03-19T17:52:14;15.52;46.67
70534;SHT31;58088;51.186;17.130;2023-03-19T17:54:43;15.42;46.83
70534;SHT31;58088;51.186;17.130;2023-03-19T17:57:15;15.34;46.85
70534;SHT31;58088;51.186;17.130;2023-03-19T17:59:42;15.28;47.06
70534;SHT31;58088;51.186;17.130;2023-03-19T18:02:26;15.19;47.51
70534;SHT31;58088;51.186;17.130;2023-03-19T18:04:57;15.08;47.70